sensor_id;sensor_type;location;lat;lon;timestamp;temperature;humidity
32097;DHT22;18610;49.916;8.284;2023-02-15T00:00:29;3.70;99.90
32097;DHT22;18610;49.916;8.284;2023-02-15T00:02:57;3.70;99.90
32097;DHT22;18610;49.916;8.284;2023-02-15T00:05:24;3.70;99.90
32097;DHT22;18610;49.916;8.284;2023-02-15T00:07:50;3.70;99.90
32097;DHT22;18610;49.916;8.284;2023-02-15T00:10:17;3.70;99.90
32097;DHT22;18610;49.916;8.284;2023-02-15T00:12:44;3.70;99.90
32097;DHT22;18610;49.916;8.284;2023-02-15T00:15:10;3.60;99.90
32097;DHT22;18610;49.916;8.284;2023-02-15T00:17:38;3.60;99.90
32097;DHT22;18610;49.916;8.284;2023-02-15T00:20:07;3.60;99.90
32097;DHT22;18610;49.916;8.284;2023-02-15T00:22:37;3.60;99.90
32097;DHT22;18610;49.916;8.284;2023-02-15T00:25:04;3.60;99.90
32097;DHT22;18610;49.916;8.284;2023-02-15T00:27:31;3.60;99.90
32097;DHT22;18610;49.916;8.284;2023-02-15T00:29:59;3.60;99.90
32097;DHT22;18610;49.916;8.284;2023-02-15T00:32:29;3.50;99.90
32097;DHT22;18610;49.916;8.284;2023-02-15T00:34:56;3.50;99.90
32097;DHT22;18610;49.916;8.284;2023-02-15T00:37:25;3.50;99.90
32097;DHT22;18610;49.916;8.284;2023-02-15T00:39:51;3.50;99.90
32097;DHT22;18610;49.916;8.284;2023-02-15T00:42:18;3.50;99.90
32097;DHT22;18610;49.916;8.284;2023-02-15T00:44:45;3.50;99.90
32097;DHT22;18610;49.916;8.284;2023-02-15T00:47:11;3.50;99.90
32097;DHT22;18610;49.916;8.284;2023-02-15T00:49:38;3.40;99.90
32097;DHT22;18610;49.916;8.284;2023-02-15T00:52:05;3.40;99.90
32097;DHT22;18610;49.916;8.284;2023-02-15T00:54:33;3.40;99.90
32097;DHT22;18610;49.916;8.284;2023-02-15T00:57:01;3.40;99.90
32097;DHT22;18610;49.916;8.284;2023-02-15T00:59:28;3.40;99.90
32097;DHT22;18610;49.916;8.284;2023-02-15T01:01:54;3.40;99.90
32097;DHT22;18610;49.916;8.284;2023-02-15T01:04:21;3.40;99.90
32097;DHT22;18610;49.916;8.284;2023-02-15T01:06:47;3.40;99.90
32097;DHT22;18610;49.916;8.284;2023-02-15T01:09:14;3.40;99.90
32097;DHT22;18610;49.916;8.284;2023-02-15T01:11:42;3.40;99.90
32097;DHT22;18610;49.916;8.284;2023-02-15T01:14:09;3.40;99.90
32097;DHT22;18610;49.916;8.284;2023-02-15T01:16:36;3.40;99.90
32097;DHT22;18610;49.916;8.284;2023-02-15T01:19:03;3.40;99.90
32097;DHT22;18610;49.916;8.284;2023-02-15T01:21:30;3.40;99.90
32097;DHT22;18610;49.916;8.284;2023-02-15T01:23:59;3.40;99.90
32097;DHT22;18610;49.916;8.284;2023-02-15T01:26:26;3.40;99.90
32097;DHT22;18610;49.916;8.284;2023-02-15T01:28:54;3.30;99.90
32097;DHT22;18610;49.916;8.284;2023-02-15T01:31:21;3.30;99.90
32097;DHT22;18610;49.916;8.284;2023-02-15T01:33:49;3.30;99.90
32097;DHT22;18610;49.916;8.284;2023-02-15T01:36:16;3.30;99.90
32097;DHT22;18610;49.916;8.284;2023-02-15T01:38:43;3.30;99.90
32097;DHT22;18610;49.916;8.284;2023-02-15T01:41:09;3.30;99.90
32097;DHT22;18610;49.916;8.284;2023-02-15T01:43:56;3.20;99.90
32097;DHT22;18610;49.916;8.284;2023-02-15T01:46:27;3.20;99.90
32097;DHT22;18610;49.916;8.284;2023-02-15T01:48:58;3.30;99.90
32097;DHT22;18610;49.916;8.284;2023-02-15T01:51:30;3.30;99.90
32097;DHT22;18610;49.916;8.284;2023-02-15T01:54:01;3.30;99.90
32097;DHT22;18610;49.916;8.284;2023-02-15T01:56:31;3.30;99.90
32097;DHT22;18610;49.916;8.284;2023-02-15T01:59:04;3.20;99.90
32097;DHT22;18610;49.916;8.284;2023-02-15T02:01:32;3.20;99.90
32097;DHT22;18610;49.916;8.284;2023-02-15T02:04:02;3.20;99.90
32097;DHT22;18610;49.916;8.284;2023-02-15T02:06:32;3.30;99.90
32097;DHT22;18610;49.916;8.284;2023-02-15T02:09:00;3.20;99.90
32097;DHT22;18610;49.916;8.284;2023-02-15T02:11:27;3.20;99.90
32097;DHT22;18610;49.916;8.284;2023-02-15T02:13:54;3.30;99.90
32097;DHT22;18610;49.916;8.284;2023-02-15T02:16:27;3.30;99.90
32097;DHT22;18610;49.916;8.284;2023-02-15T02:19:17;3.20;99.90
32097;DHT22;18610;49.916;8.284;2023-02-15T02:22:07;3.20;99.90
32097;DHT22;18610;49.916;8.284;2023-02-15T02:25:19;3.20;99.90
32097;DHT22;18610;49.916;8.284;2023-02-15T02:27:57;3.20;99.90
32097;DHT22;18610;49.916;8.284;2023-02-15T02:30:45;3.20;99.90
32097;DHT22;18610;49.916;8.284;2023-02-15T02:33:24;3.20;99.90
32097;DHT22;18610;49.916;8.284;2023-02-15T02:36:02;3.20;99.90
32097;DHT22;18610;49.916;8.284;2023-02-15T02:38:39;3.20;99.90
32097;DHT22;18610;49.916;8.284;2023-02-15T02:41:17;3.10;99.90
32097;DHT22;18610;49.916;8.284;2023-02-15T02:43:50;3.10;99.90
32097;DHT22;18610;49.916;8.284;2023-02-15T02:46:21;3.10;99.90
32097;DHT22;18610;49.916;8.284;2023-02-15T02:48:52;3.10;99.90
32097;DHT22;18610;49.916;8.284;2023-02-15T02:51:20;3.00;99.90
32097;DHT22;18610;49.916;8.284;2023-02-15T02:53:50;3.00;99.90
32097;DHT22;18610;49.916;8.284;2023-02-15T02:56:22;3.00;99.90
32097;DHT22;18610;49.916;8.284;2023-02-15T02:58:56;3.00;99.90
32097;DHT22;18610;49.916;8.284;2023-02-15T03:01:26;3.00;99.90
32097;DHT22;18610;49.916;8.284;2023-02-15T03:03:57;3.00;99.90
32097;DHT22;18610;49.916;8.284;2023-02-15T03:06:30;2.90;99.90
32097;DHT22;18610;49.916;8.284;2023-02-15T03:09:06;2.90;99.90
32097;DHT22;18610;49.916;8.284;2023-02-15T03:11:41;2.90;99.90
32097;DHT22;18610;49.916;8.284;2023-02-15T03:14:09;2.90;99.90
32097;DHT22;18610;49.916;8.284;2023-02-15T03:16:37;2.90;99.90
32097;DHT22;18610;49.916;8.284;2023-02-15T03:19:10;2.90;99.90
32097;DHT22;18610;49.916;8.284;2023-02-15T03:21:41;2.90;99.90
32097;DHT22;18610;49.916;8.284;2023-02-15T03:24:17;2.90;99.90
32097;DHT22;18610;49.916;8.284;2023-02-15T03:26:47;2.90;99.90
32097;DHT22;18610;49.916;8.284;2023-02-15T03:29:17;2.90;99.90
32097;DHT22;18610;49.916;8.284;2023-02-15T03:31:48;3.00;99.90
32097;DHT22;18610;49.916;8.284;2023-02-15T03:34:17;3.00;99.90
32097;DHT22;18610;49.916;8.284;2023-02-15T03:36:46;3.00;99.90
32097;DHT22;18610;49.916;8.284;2023-02-15T03:39:21;3.00;99.90
32097;DHT22;18610;49.916;8.284;2023-02-15T03:41:57;3.10;99.90
32097;DHT22;18610;49.916;8.284;2023-02-15T03:44:27;3.10;99.90
32097;DHT22;18610;49.916;8.284;2023-02-15T03:47:00;3.10;99.90
32097;DHT22;18610;49.916;8.284;2023-02-15T03:49:34;3.00;99.90
32097;DHT22;18610;49.916;8.284;2023-02-15T03:52:04;3.00;99.90
32097;DHT22;18610;49.916;8.284;2023-02-15T03:54:34;2.90;99.90
32097;DHT22;18610;49.916;8.284;2023-02-15T03:57:16;2.90;99.90
32097;DHT22;18610;49.916;8.284;2023-02-15T04:00:05;2.90;99.90
32097;DHT22;18610;49.916;8.284;2023-02-15T04:03:15;2.90;99.90
32097;DHT22;18610;49.916;8.284;2023-02-15T04:05:46;2.90;99.90
32097;DHT22;18610;49.916;8.284;2023-02-15T04:08:13;2.90;99.90
32097;DHT22;18610;49.916;8.284;2023-02-15T04:10:40;2.80;99.90
32097;DHT22;18610;49.916;8.284;2023-02-15T04:13:18;2.80;99.90
32097;DHT22;18610;49.916;8.284;2023-02-15T04:15:45;2.80;99.90
32097;DHT22;18610;49.916;8.284;2023-02-15T04:18:30;2.80;99.90
32097;DHT22;18610;49.916;8.284;2023-02-15T04:21:15;2.80;99.90
32097;DHT22;18610;49.916;8.284;2023-02-15T04:24:00;2.90;99.90
32097;DHT22;18610;49.916;8.284;2023-02-15T04:26:44;2.80;99.90
32097;DHT22;18610;49.916;8.284;2023-02-15T04:29:13;2.80;99.90
32097;DHT22;18610;49.916;8.284;2023-02-15T04:31:40;2.80;99.90
32097;DHT22;18610;49.916;8.284;2023-02-15T04:34:08;2.80;99.90
32097;DHT22;18610;49.916;8.284;2023-02-15T04:36:36;2.80;99.90
32097;DHT22;18610;49.916;8.284;2023-02-15T04:39:03;2.80;99.90
32097;DHT22;18610;49.916;8.284;2023-02-15T04:41:29;2.80;99.90
32097;DHT22;18610;49.916;8.284;2023-02-15T04:43:56;2.80;99.90
32097;DHT22;18610;49.916;8.284;2023-02-15T04:46:23;2.80;99.90
32097;DHT22;18610;49.916;8.284;2023-02-15T04:48:53;2.80;99.90
32097;DHT22;18610;49.916;8.284;2023-02-15T04:51:20;2.80;99.90
32097;DHT22;18610;49.916;8.284;2023-02-15T04:53:48;2.80;99.90
32097;DHT22;18610;49.916;8.284;2023-02-15T04:56:15;2.80;99.90
32097;DHT22;18610;49.916;8.284;2023-02-15T04:58:42;2.80;99.90
32097;DHT22;18610;49.916;8.284;2023-02-15T05:01:08;2.80;99.90
32097;DHT22;18610;49.916;8.284;2023-02-15T05:03:35;2.80;99.90
32097;DHT22;18610;49.916;8.284;2023-02-15T05:06:03;2.80;99.90
32097;DHT22;18610;49.916;8.284;2023-02-15T05:08:29;2.80;99.90
32097;DHT22;18610;49.916;8.284;2023-02-15T05:10:58;2.80;99.90
32097;DHT22;18610;49.916;8.284;2023-02-15T05:13:25;2.80;99.90
32097;DHT22;18610;49.916;8.284;2023-02-15T05:15:52;2.80;99.90
32097;DHT22;18610;49.916;8.284;2023-02-15T05:18:20;2.80;99.90
32097;DHT22;18610;49.916;8.284;2023-02-15T05:20:47;2.80;99.90
32097;DHT22;18610;49.916;8.284;2023-02-15T05:23:14;2.80;99.90
32097;DHT22;18610;49.916;8.284;2023-02-15T05:25:46;2.70;99.90
32097;DHT22;18610;49.916;8.284;2023-02-15T05:28:32;2.70;99.90
32097;DHT22;18610;49.916;8.284;2023-02-15T05:31:03;2.70;99.90
32097;DHT22;18610;49.916;8.284;2023-02-15T05:33:30;2.70;99.90
32097;DHT22;18610;49.916;8.284;2023-02-15T05:35:57;2.60;99.90
32097;DHT22;18610;49.916;8.284;2023-02-15T05:38:23;2.50;99.90
32097;DHT22;18610;49.916;8.284;2023-02-15T05:40:50;2.50;99.90
32097;DHT22;18610;49.916;8.284;2023-02-15T05:43:18;2.50;99.90
32097;DHT22;18610;49.916;8.284;2023-02-15T05:45:46;2.50;99.90
32097;DHT22;18610;49.916;8.284;2023-02-15T05:48:13;2.40;99.90
32097;DHT22;18610;49.916;8.284;2023-02-15T05:50:40;2.40;99.90
32097;DHT22;18610;49.916;8.284;2023-02-15T05:53:07;2.40;99.90
32097;DHT22;18610;49.916;8.284;2023-02-15T05:55:33;2.50;99.90
32097;DHT22;18610;49.916;8.284;2023-02-15T05:58:00;2.50;99.90
32097;DHT22;18610;49.916;8.284;2023-02-15T06:00:27;2.40;99.90
32097;DHT22;18610;49.916;8.284;2023-02-15T06:02:55;2.40;99.90
32097;DHT22;18610;49.916;8.284;2023-02-15T06:05:21;2.40;99.90
32097;DHT22;18610;49.916;8.284;2023-02-15T06:07:48;2.30;99.90
32097;DHT22;18610;49.916;8.284;2023-02-15T06:10:15;2.30;99.90
32097;DHT22;18610;49.916;8.284;2023-02-15T06:12:43;2.30;99.90
32097;DHT22;18610;49.916;8.284;2023-02-15T06:15:10;2.30;99.90
32097;DHT22;18610;49.916;8.284;2023-02-15T06:17:37;2.20;99.90
32097;DHT22;18610;49.916;8.284;2023-02-15T06:20:06;2.20;99.90
32097;DHT22;18610;49.916;8.284;2023-02-15T06:22:33;2.20;99.90
32097;DHT22;18610;49.916;8.284;2023-02-15T06:25:01;2.20;99.90
32097;DHT22;18610;49.916;8.284;2023-02-15T06:27:29;2.20;99.90
32097;DHT22;18610;49.916;8.284;2023-02-15T06:29:55;2.20;99.90
32097;DHT22;18610;49.916;8.284;2023-02-15T06:32:22;2.20;99.90
32097;DHT22;18610;49.916;8.284;2023-02-15T06:34:49;2.20;99.90
32097;DHT22;18610;49.916;8.284;2023-02-15T06:37:17;2.10;99.90
32097;DHT22;18610;49.916;8.284;2023-02-15T06:39:43;2.10;99.90
32097;DHT22;18610;49.916;8.284;2023-02-15T06:42:10;2.10;99.90
32097;DHT22;18610;49.916;8.284;2023-02-15T06:44:37;2.10;99.90
32097;DHT22;18610;49.916;8.284;2023-02-15T06:47:03;2.10;99.90
32097;DHT22;18610;49.916;8.284;2023-02-15T06:49:30;2.20;99.90
32097;DHT22;18610;49.916;8.284;2023-02-15T06:51:57;2.20;99.90
32097;DHT22;18610;49.916;8.284;2023-02-15T06:54:25;2.10;99.90
32097;DHT22;18610;49.916;8.284;2023-02-15T06:56:51;2.10;99.90
32097;DHT22;18610;49.916;8.284;2023-02-15T06:59:18;2.10;99.90
32097;DHT22;18610;49.916;8.284;2023-02-15T07:01:45;2.00;99.90
32097;DHT22;18610;49.916;8.284;2023-02-15T07:04:15;2.00;99.90
32097;DHT22;18610;49.916;8.284;2023-02-15T07:06:42;2.00;99.90
32097;DHT22;18610;49.916;8.284;2023-02-15T07:09:08;2.00;99.90
32097;DHT22;18610;49.916;8.284;2023-02-15T07:11:36;2.10;99.90
32097;DHT22;18610;49.916;8.284;2023-02-15T07:14:21;2.10;99.90
32097;DHT22;18610;49.916;8.284;2023-02-15T07:16:47;2.10;99.90
32097;DHT22;18610;49.916;8.284;2023-02-15T07:19:14;2.10;99.90
32097;DHT22;18610;49.916;8.284;2023-02-15T07:21:41;2.20;99.90
32097;DHT22;18610;49.916;8.284;2023-02-15T07:24:09;2.20;99.90
32097;DHT22;18610;49.916;8.284;2023-02-15T07:26:37;2.20;99.90
32097;DHT22;18610;49.916;8.284;2023-02-15T07:29:04;2.20;99.90
32097;DHT22;18610;49.916;8.284;2023-02-15T07:31:30;2.20;99.90
32097;DHT22;18610;49.916;8.284;2023-02-15T07:33:57;2.20;99.90
32097;DHT22;18610;49.916;8.284;2023-02-15T07:36:24;2.20;99.90
32097;DHT22;18610;49.916;8.284;2023-02-15T07:38:50;2.20;99.90
32097;DHT22;18610;49.916;8.284;2023-02-15T07:41:17;2.20;99.90
32097;DHT22;18610;49.916;8.284;2023-02-15T07:43:46;2.20;99.90
32097;DHT22;18610;49.916;8.284;2023-02-15T07:46:14;2.30;99.90
32097;DHT22;18610;49.916;8.284;2023-02-15T07:48:42;2.30;99.90
32097;DHT22;18610;49.916;8.284;2023-02-15T07:51:11;2.40;99.90
32097;DHT22;18610;49.916;8.284;2023-02-15T07:53:38;2.40;99.90
32097;DHT22;18610;49.916;8.284;2023-02-15T07:56:07;2.40;99.90
32097;DHT22;18610;49.916;8.284;2023-02-15T07:58:37;2.50;99.90
32097;DHT22;18610;49.916;8.284;2023-02-15T08:01:24;2.50;99.90
32097;DHT22;18610;49.916;8.284;2023-02-15T08:03:52;2.50;99.90
32097;DHT22;18610;49.916;8.284;2023-02-15T08:06:18;2.50;99.90
32097;DHT22;18610;49.916;8.284;2023-02-15T08:08:45;2.50;99.90
32097;DHT22;18610;49.916;8.284;2023-02-15T08:11:18;2.50;99.90
32097;DHT22;18610;49.916;8.284;2023-02-15T08:14:03;2.50;99.90
32097;DHT22;18610;49.916;8.284;2023-02-15T08:16:34;2.40;99.90
32097;DHT22;18610;49.916;8.284;2023-02-15T08:19:03;2.50;99.90
32097;DHT22;18610;49.916;8.284;2023-02-15T08:21:31;2.60;99.90
32097;DHT22;18610;49.916;8.284;2023-02-15T08:23:59;2.50;99.90
32097;DHT22;18610;49.916;8.284;2023-02-15T08:26:27;2.40;99.90
32097;DHT22;18610;49.916;8.284;2023-02-15T08:28:55;2.40;99.90
32097;DHT22;18610;49.916;8.284;2023-02-15T08:31:22;2.30;99.90
32097;DHT22;18610;49.916;8.284;2023-02-15T08:33:52;2.30;99.90
32097;DHT22;18610;49.916;8.284;2023-02-15T08:36:21;2.30;99.90
32097;DHT22;18610;49.916;8.284;2023-02-15T08:38:48;2.10;99.90
32097;DHT22;18610;49.916;8.284;2023-02-15T08:41:16;2.20;99.90
32097;DHT22;18610;49.916;8.284;2023-02-15T08:43:45;2.20;99.90
32097;DHT22;18610;49.916;8.284;2023-02-15T08:46:13;2.30;99.90
32097;DHT22;18610;49.916;8.284;2023-02-15T08:48:41;2.30;99.90
32097;DHT22;18610;49.916;8.284;2023-02-15T08:51:11;2.40;99.90
32097;DHT22;18610;49.916;8.284;2023-02-15T08:53:39;2.50;99.90
32097;DHT22;18610;49.916;8.284;2023-02-15T08:56:06;2.50;99.90
32097;DHT22;18610;49.916;8.284;2023-02-15T08:58:34;2.50;99.90
32097;DHT22;18610;49.916;8.284;2023-02-15T09:01:01;2.50;99.90
32097;DHT22;18610;49.916;8.284;2023-02-15T09:03:33;2.60;99.90
32097;DHT22;18610;49.916;8.284;2023-02-15T09:06:01;2.60;99.90
32097;DHT22;18610;49.916;8.284;2023-02-15T09:08:29;2.60;99.90
32097;DHT22;18610;49.916;8.284;2023-02-15T09:11:05;2.70;99.90
32097;DHT22;18610;49.916;8.284;2023-02-15T09:13:32;2.70;99.90
32097;DHT22;18610;49.916;8.284;2023-02-15T09:16:00;2.80;99.90
32097;DHT22;18610;49.916;8.284;2023-02-15T09:18:27;2.80;99.90
32097;DHT22;18610;49.916;8.284;2023-02-15T09:20:54;2.80;99.90
32097;DHT22;18610;49.916;8.284;2023-02-15T09:23:20;2.80;99.90
32097;DHT22;18610;49.916;8.284;2023-02-15T09:25:48;2.90;99.90
32097;DHT22;18610;49.916;8.284;2023-02-15T09:28:15;2.90;99.90
32097;DHT22;18610;49.916;8.284;2023-02-15T09:30:42;2.90;99.90
32097;DHT22;18610;49.916;8.284;2023-02-15T09:33:08;2.90;99.90
32097;DHT22;18610;49.916;8.284;2023-02-15T09:35:35;3.00;99.90
32097;DHT22;18610;49.916;8.284;2023-02-15T09:38:01;3.00;99.90
32097;DHT22;18610;49.916;8.284;2023-02-15T09:40:32;3.10;99.90
32097;DHT22;18610;49.916;8.284;2023-02-15T09:43:18;3.10;99.90
32097;DHT22;18610;49.916;8.284;2023-02-15T09:46:04;3.10;99.90
32097;DHT22;18610;49.916;8.284;2023-02-15T09:48:41;3.10;99.90
32097;DHT22;18610;49.916;8.284;2023-02-15T09:54:09;2.90;99.90
32097;DHT22;18610;49.916;8.284;2023-02-15T09:56:45;2.90;99.90
32097;DHT22;18610;49.916;8.284;2023-02-15T09:59:21;2.90;99.90
32097;DHT22;18610;49.916;8.284;2023-02-15T10:01:58;2.90;99.90
32097;DHT22;18610;49.916;8.284;2023-02-15T10:04:45;2.90;99.90
32097;DHT22;18610;49.916;8.284;2023-02-15T10:07:27;2.90;99.90
32097;DHT22;18610;49.916;8.284;2023-02-15T10:10:09;3.00;99.90
32097;DHT22;18610;49.916;8.284;2023-02-15T10:12:53;3.00;99.90
32097;DHT22;18610;49.916;8.284;2023-02-15T10:15:29;3.10;99.90
32097;DHT22;18610;49.916;8.284;2023-02-15T10:18:15;3.10;99.90
32097;DHT22;18610;49.916;8.284;2023-02-15T10:20:51;3.20;99.90
32097;DHT22;18610;49.916;8.284;2023-02-15T10:23:35;3.20;99.90
32097;DHT22;18610;49.916;8.284;2023-02-15T10:26:12;3.20;99.90
32097;DHT22;18610;49.916;8.284;2023-02-15T10:28:46;3.20;99.90
32097;DHT22;18610;49.916;8.284;2023-02-15T10:31:24;3.20;99.90
32097;DHT22;18610;49.916;8.284;2023-02-15T10:34:09;3.20;99.90
32097;DHT22;18610;49.916;8.284;2023-02-15T10:36:53;3.20;99.90
32097;DHT22;18610;49.916;8.284;2023-02-15T10:39:26;3.30;99.90
32097;DHT22;18610;49.916;8.284;2023-02-15T10:42:06;3.30;99.90
32097;DHT22;18610;49.916;8.284;2023-02-15T10:44:45;3.30;99.90
32097;DHT22;18610;49.916;8.284;2023-02-15T10:47:32;3.30;99.90
32097;DHT22;18610;49.916;8.284;2023-02-15T10:50:15;3.30;99.90
32097;DHT22;18610;49.916;8.284;2023-02-15T10:52:51;3.30;99.90
32097;DHT22;18610;49.916;8.284;2023-02-15T10:55:33;3.30;99.90
32097;DHT22;18610;49.916;8.284;2023-02-15T10:58:07;3.30;99.90
32097;DHT22;18610;49.916;8.284;2023-02-15T11:00:40;3.20;99.90
32097;DHT22;18610;49.916;8.284;2023-02-15T11:03:33;3.10;99.90
32097;DHT22;18610;49.916;8.284;2023-02-15T11:06:05;3.10;99.90
32097;DHT22;18610;49.916;8.284;2023-02-15T11:08:38;3.20;99.90
32097;DHT22;18610;49.916;8.284;2023-02-15T11:11:08;3.20;99.90
32097;DHT22;18610;49.916;8.284;2023-02-15T11:13:38;3.30;99.90
32097;DHT22;18610;49.916;8.284;2023-02-15T11:16:11;3.10;99.90
32097;DHT22;18610;49.916;8.284;2023-02-15T11:18:44;3.10;99.90
32097;DHT22;18610;49.916;8.284;2023-02-15T11:21:17;3.10;99.90
32097;DHT22;18610;49.916;8.284;2023-02-15T11:23:47;3.10;99.90
32097;DHT22;18610;49.916;8.284;2023-02-15T11:26:16;3.10;99.90
32097;DHT22;18610;49.916;8.284;2023-02-15T11:28:49;3.10;99.90
32097;DHT22;18610;49.916;8.284;2023-02-15T11:31:21;3.10;99.90
32097;DHT22;18610;49.916;8.284;2023-02-15T11:33:52;3.00;99.90
32097;DHT22;18610;49.916;8.284;2023-02-15T11:36:22;3.00;99.90
32097;DHT22;18610;49.916;8.284;2023-02-15T11:38:54;3.00;99.90
32097;DHT22;18610;49.916;8.284;2023-02-15T11:41:24;3.00;99.90
32097;DHT22;18610;49.916;8.284;2023-02-15T11:43:56;3.00;99.90
32097;DHT22;18610;49.916;8.284;2023-02-15T11:46:24;3.00;99.90
32097;DHT22;18610;49.916;8.284;2023-02-15T11:48:53;3.00;99.90
32097;DHT22;18610;49.916;8.284;2023-02-15T11:51:22;3.10;99.90
32097;DHT22;18610;49.916;8.284;2023-02-15T11:53:49;3.20;99.90
32097;DHT22;18610;49.916;8.284;2023-02-15T11:56:19;3.30;99.90
32097;DHT22;18610;49.916;8.284;2023-02-15T11:58:51;3.30;99.90
32097;DHT22;18610;49.916;8.284;2023-02-15T12:01:23;3.40;99.90
32097;DHT22;18610;49.916;8.284;2023-02-15T12:03:53;3.40;99.90
32097;DHT22;18610;49.916;8.284;2023-02-15T12:06:25;3.50;99.90
32097;DHT22;18610;49.916;8.284;2023-02-15T12:08:57;3.50;99.90
32097;DHT22;18610;49.916;8.284;2023-02-15T12:11:30;3.50;99.90
32097;DHT22;18610;49.916;8.284;2023-02-15T12:13:59;3.50;99.90
32097;DHT22;18610;49.916;8.284;2023-02-15T12:16:27;3.50;99.90
32097;DHT22;18610;49.916;8.284;2023-02-15T12:18:58;3.60;99.90
32097;DHT22;18610;49.916;8.284;2023-02-15T12:21:29;3.60;99.90
32097;DHT22;18610;49.916;8.284;2023-02-15T12:24:00;3.60;99.90
32097;DHT22;18610;49.916;8.284;2023-02-15T12:26:29;3.60;99.90
32097;DHT22;18610;49.916;8.284;2023-02-15T12:29:00;3.50;99.90
32097;DHT22;18610;49.916;8.284;2023-02-15T12:31:31;3.40;99.90
32097;DHT22;18610;49.916;8.284;2023-02-15T12:34:03;3.50;99.90
32097;DHT22;18610;49.916;8.284;2023-02-15T12:36:42;3.40;99.90
32097;DHT22;18610;49.916;8.284;2023-02-15T12:39:22;3.40;99.90
32097;DHT22;18610;49.916;8.284;2023-02-15T12:42:00;3.40;99.90
32097;DHT22;18610;49.916;8.284;2023-02-15T12:44:30;3.50;99.90
32097;DHT22;18610;49.916;8.284;2023-02-15T12:46:59;3.50;99.90
32097;DHT22;18610;49.916;8.284;2023-02-15T12:49:28;3.60;99.90
32097;DHT22;18610;49.916;8.284;2023-02-15T12:51:56;3.60;99.90
32097;DHT22;18610;49.916;8.284;2023-02-15T12:54:30;3.70;99.90
32097;DHT22;18610;49.916;8.284;2023-02-15T12:56:57;3.70;99.90
32097;DHT22;18610;49.916;8.284;2023-02-15T12:59:24;3.60;99.90
32097;DHT22;18610;49.916;8.284;2023-02-15T13:01:52;3.60;99.90
32097;DHT22;18610;49.916;8.284;2023-02-15T13:04:23;3.50;99.90
32097;DHT22;18610;49.916;8.284;2023-02-15T13:06:56;3.60;99.90
32097;DHT22;18610;49.916;8.284;2023-02-15T13:09:35;3.60;99.90
32097;DHT22;18610;49.916;8.284;2023-02-15T13:12:11;3.60;99.90
32097;DHT22;18610;49.916;8.284;2023-02-15T13:14:44;3.60;99.90
32097;DHT22;18610;49.916;8.284;2023-02-15T13:17:12;3.60;99.90
32097;DHT22;18610;49.916;8.284;2023-02-15T13:19:43;3.60;99.90
32097;DHT22;18610;49.916;8.284;2023-02-15T13:22:15;3.70;99.90
32097;DHT22;18610;49.916;8.284;2023-02-15T13:24:45;3.80;99.90
32097;DHT22;18610;49.916;8.284;2023-02-15T13:27:15;3.80;99.90
32097;DHT22;18610;49.916;8.284;2023-02-15T13:29:44;3.80;99.90
32097;DHT22;18610;49.916;8.284;2023-02-15T13:32:24;3.80;99.90
32097;DHT22;18610;49.916;8.284;2023-02-15T13:34:54;3.80;99.90
32097;DHT22;18610;49.916;8.284;2023-02-15T13:37:37;3.80;99.90
32097;DHT22;18610;49.916;8.284;2023-02-15T13:40:12;3.90;99.90
32097;DHT22;18610;49.916;8.284;2023-02-15T13:42:41;3.90;99.90
32097;DHT22;18610;49.916;8.284;2023-02-15T13:45:28;4.00;99.90
32097;DHT22;18610;49.916;8.284;2023-02-15T13:48:02;4.10;99.90
32097;DHT22;18610;49.916;8.284;2023-02-15T13:50:46;4.10;99.90
32097;DHT22;18610;49.916;8.284;2023-02-15T13:53:36;4.10;99.90
32097;DHT22;18610;49.916;8.284;2023-02-15T13:56:14;4.10;99.90
32097;DHT22;18610;49.916;8.284;2023-02-15T13:59:07;4.10;99.90
32097;DHT22;18610;49.916;8.284;2023-02-15T14:01:41;3.90;99.90
32097;DHT22;18610;49.916;8.284;2023-02-15T14:04:35;3.90;99.90
32097;DHT22;18610;49.916;8.284;2023-02-15T14:07:30;3.90;99.90
32097;DHT22;18610;49.916;8.284;2023-02-15T14:10:15;3.80;99.90
32097;DHT22;18610;49.916;8.284;2023-02-15T14:12:58;3.70;99.90
32097;DHT22;18610;49.916;8.284;2023-02-15T14:15:35;3.80;99.90
32097;DHT22;18610;49.916;8.284;2023-02-15T14:18:12;3.80;99.90
32097;DHT22;18610;49.916;8.284;2023-02-15T14:20:51;3.80;99.90
32097;DHT22;18610;49.916;8.284;2023-02-15T14:23:30;3.80;99.90
32097;DHT22;18610;49.916;8.284;2023-02-15T14:26:06;3.80;99.90
32097;DHT22;18610;49.916;8.284;2023-02-15T14:28:40;3.90;99.90
32097;DHT22;18610;49.916;8.284;2023-02-15T14:31:12;3.90;99.90
32097;DHT22;18610;49.916;8.284;2023-02-15T14:33:43;3.90;99.90
32097;DHT22;18610;49.916;8.284;2023-02-15T14:36:16;3.90;99.90
32097;DHT22;18610;49.916;8.284;2023-02-15T14:38:53;3.90;99.90
32097;DHT22;18610;49.916;8.284;2023-02-15T14:41:27;3.90;99.90
32097;DHT22;18610;49.916;8.284;2023-02-15T14:44:01;3.90;99.90
32097;DHT22;18610;49.916;8.284;2023-02-15T14:46:36;3.90;99.90
32097;DHT22;18610;49.916;8.284;2023-02-15T14:49:09;3.90;99.90
32097;DHT22;18610;49.916;8.284;2023-02-15T14:52:01;3.80;99.90
32097;DHT22;18610;49.916;8.284;2023-02-15T14:54:52;3.80;99.90
32097;DHT22;18610;49.916;8.284;2023-02-15T14:57:30;3.80;99.90
32097;DHT22;18610;49.916;8.284;2023-02-15T14:59:58;3.80;99.90
32097;DHT22;18610;49.916;8.284;2023-02-15T15:02:39;3.90;99.90
32097;DHT22;18610;49.916;8.284;2023-02-15T15:05:09;3.90;99.90
32097;DHT22;18610;49.916;8.284;2023-02-15T15:07:41;3.90;99.90
32097;DHT22;18610;49.916;8.284;2023-02-15T15:10:34;3.90;99.90
32097;DHT22;18610;49.916;8.284;2023-02-15T15:15:46;3.90;99.90
32097;DHT22;18610;49.916;8.284;2023-02-15T15:18:44;4.00;99.90
32097;DHT22;18610;49.916;8.284;2023-02-15T15:24:48;3.90;99.90
32097;DHT22;18610;49.916;8.284;2023-02-15T15:30:49;3.80;99.90
32097;DHT22;18610;49.916;8.284;2023-02-15T15:36:40;3.70;99.90
32097;DHT22;18610;49.916;8.284;2023-02-15T15:39:27;3.70;99.90
32097;DHT22;18610;49.916;8.284;2023-02-15T15:42:04;3.70;99.90
32097;DHT22;18610;49.916;8.284;2023-02-15T15:47:59;3.70;99.90
32097;DHT22;18610;49.916;8.284;2023-02-15T15:50:28;3.60;99.90
32097;DHT22;18610;49.916;8.284;2023-02-15T15:52:57;3.60;99.90
32097;DHT22;18610;49.916;8.284;2023-02-15T15:55:26;3.60;99.90
32097;DHT22;18610;49.916;8.284;2023-02-15T15:57:57;3.70;99.90
32097;DHT22;18610;49.916;8.284;2023-02-15T16:00:32;3.70;99.90
32097;DHT22;18610;49.916;8.284;2023-02-15T16:03:01;3.70;99.90
32097;DHT22;18610;49.916;8.284;2023-02-15T16:05:35;3.80;99.90
32097;DHT22;18610;49.916;8.284;2023-02-15T16:08:02;3.80;99.90
32097;DHT22;18610;49.916;8.284;2023-02-15T16:10:30;3.80;99.90
32097;DHT22;18610;49.916;8.284;2023-02-15T16:13:00;3.80;99.90
32097;DHT22;18610;49.916;8.284;2023-02-15T16:15:33;3.80;99.90
32097;DHT22;18610;49.916;8.284;2023-02-15T16:18:03;3.80;99.90
32097;DHT22;18610;49.916;8.284;2023-02-15T16:20:31;3.80;99.90
32097;DHT22;18610;49.916;8.284;2023-02-15T16:23:12;3.90;99.90
32097;DHT22;18610;49.916;8.284;2023-02-15T16:25:47;3.90;99.90
32097;DHT22;18610;49.916;8.284;2023-02-15T16:28:16;3.90;99.90
32097;DHT22;18610;49.916;8.284;2023-02-15T16:30:54;3.80;99.90
32097;DHT22;18610;49.916;8.284;2023-02-15T16:33:23;3.80;99.90